Time;durP1;ratioP1;P1;durP2;ratioP2;P2;SDS_P1;SDS_P2;PMS_P1;PMS_P2;Temp;Humidity;BMP_temperature;BMP_pressure;BME280_temperature;BME280_humidity;BME280_pressure;Samples;Min_cycle;Max_cycle;Signal;HPM_P1;HPM_P2
2021/09/29 00:00:51;;;;;;;33.08;27.00;;;19.30;97.00;;;;;;5078409;28;20025;-66
2021/09/29 00:03:17;;;;;;;36.00;29.58;;;19.30;97.00;;;;;;5078938;28;20044;-66
2021/09/29 00:05:44;;;;;;;33.45;27.77;;;19.30;97.00;;;;;;5078670;28;20380;-66
2021/09/29 00:08:11;;;;;;;38.78;31.58;;;19.30;97.10;;;;;;5078915;28;20464;-65
2021/09/29 00:10:40;;;;;;;33.65;29.65;;;19.30;97.20;;;;;;5060552;28;20032;-65
2021/09/29 00:13:07;;;;;;;34.05;29.98;;;19.20;97.20;;;;;;5078243;28;20032;-66
2021/09/29 00:15:33;;;;;;;37.70;30.60;;;19.30;97.30;;;;;;5059894;28;20044;-66
2021/09/29 00:18:00;;;;;;;36.17;28.55;;;19.30;97.40;;;;;;5060085;28;20044;-66
2021/09/29 00:20:26;;;;;;;36.72;30.75;;;19.20;97.50;;;;;;5059894;28;20047;-66
2021/09/29 00:22:53;;;;;;;36.10;29.80;;;19.20;97.60;;;;;;5078313;28;20514;-65
2021/09/29 00:25:19;;;;;;;41.15;30.90;;;19.30;97.60;;;;;;5057637;28;20459;-66
2021/09/29 00:27:46;;;;;;;35.30;30.95;;;19.20;97.60;;;;;;5075073;28;20040;-65
2021/09/29 00:30:13;;;;;;;39.22;31.85;;;19.20;97.70;;;;;;5075391;28;20028;-65
2021/09/29 00:32:41;;;;;;;36.63;30.45;;;19.20;97.60;;;;;;5075109;28;20036;-65
2021/09/29 00:35:10;;;;;;;35.15;30.33;;;19.20;97.40;;;;;;5075206;28;20036;-65
2021/09/29 00:37:37;;;;;;;38.45;30.30;;;19.20;97.40;;;;;;5074601;28;20049;-65
2021/09/29 00:40:05;;;;;;;34.22;29.88;;;19.20;97.50;;;;;;5056912;28;20048;-65
2021/09/29 00:42:32;;;;;;;35.55;29.63;;;19.20;97.60;;;;;;5074907;28;20060;-65
2021/09/29 00:44:59;;;;;;;40.22;30.38;;;19.20;97.80;;;;;;5074777;28;20040;-65
2021/09/29 00:47:29;;;;;;;37.30;30.17;;;19.20;97.70;;;;;;5075054;28;20440;-65
2021/09/29 00:49:56;;;;;;;34.72;29.67;;;19.20;97.50;;;;;;5056666;28;20036;-66
2021/09/29 00:52:22;;;;;;;40.47;29.98;;;19.20;97.60;;;;;;5056932;28;20028;-65
2021/09/29 00:54:49;;;;;;;35.65;28.70;;;19.20;97.80;;;;;;5074602;28;20029;-66
2021/09/29 00:57:15;;;;;;;36.90;28.90;;;19.20;97.90;;;;;;5075002;28;20344;-65
2021/09/29 00:59:42;;;;;;;36.45;30.02;;;19.10;97.90;;;;;;5055710;28;20044;-66
2021/09/29 01:02:08;;;;;;;34.55;27.92;;;19.10;98.10;;;;;;5055979;28;20053;-66
2021/09/29 01:04:35;;;;;;;36.83;29.15;;;19.10;98.20;;;;;;5056563;28;20032;-66
2021/09/29 01:07:16;;;;;;;35.85;29.17;;;19.00;98.30;;;;;;5074394;28;20027;-66
2021/09/29 01:09:47;;;;;;;31.08;27.60;;;19.00;98.40;;;;;;5056607;28;20036;-67
2021/09/29 01:12:22;;;;;;;36.40;28.55;;;19.00;98.50;;;;;;5074379;28;20095;-66
2021/09/29 01:15:06;;;;;;;36.33;28.27;;;18.90;98.50;;;;;;5074137;28;20045;-65
2021/09/29 01:17:41;;;;;;;36.65;29.38;;;18.90;98.50;;;;;;5073047;28;20074;-66
2021/09/29 01:20:11;;;;;;;36.80;29.15;;;18.90;98.50;;;;;;5074066;28;20032;-65
2021/09/29 01:22:58;;;;;;;36.00;29.57;;;18.90;98.50;;;;;;5074279;28;20033;-65
2021/09/29 01:25:44;;;;;;;38.65;28.65;;;18.80;98.30;;;;;;5070441;28;20384;-65
2021/09/29 01:28:11;;;;;;;38.20;29.05;;;18.80;98.40;;;;;;5064022;28;20044;-66
2021/09/29 01:30:38;;;;;;;38.05;28.25;;;18.80;98.00;;;;;;5073700;28;20044;-66
2021/09/29 01:33:07;;;;;;;36.30;28.75;;;18.80;97.60;;;;;;5073939;28;20032;-65
2021/09/29 01:35:34;;;;;;;35.13;27.80;;;18.80;97.50;;;;;;5072915;28;20479;-66
2021/09/29 01:38:01;;;;;;;38.13;27.88;;;18.70;97.60;;;;;;5072863;28;20028;-66
2021/09/29 01:40:27;;;;;;;34.55;29.23;;;18.70;97.50;;;;;;5074014;28;20039;-66
2021/09/29 01:42:54;;;;;;;36.08;28.67;;;18.70;97.20;;;;;;5072754;28;20044;-66
2021/09/29 01:45:20;;;;;;;35.65;28.60;;;18.60;97.10;;;;;;5074112;28;20051;-66
2021/09/29 01:47:48;;;;;;;32.38;27.02;;;18.60;97.20;;;;;;5072871;28;20510;-66
2021/09/29 01:50:21;;;;;;;32.10;25.77;;;18.60;97.20;;;;;;5073390;28;20024;-66
2021/09/29 01:52:50;;;;;;;32.40;27.15;;;18.60;97.10;;;;;;5073495;28;20029;-66
2021/09/29 01:55:18;;;;;;;36.53;29.70;;;18.60;97.40;;;;;;5073565;28;20029;-66
2021/09/29 01:57:49;;;;;;;36.15;27.48;;;18.50;97.10;;;;;;5055633;28;20063;-66
2021/09/29 02:00:19;;;;;;;36.65;28.95;;;18.50;97.10;;;;;;5073431;28;20024;-64
2021/09/29 02:02:45;;;;;;;34.72;26.80;;;18.50;97.30;;;;;;5073157;28;20037;-65
2021/09/29 02:05:13;;;;;;;38.42;28.88;;;18.50;97.30;;;;;;5073416;28;20028;-66
2021/09/29 02:07:40;;;;;;;34.72;28.42;;;18.40;97.30;;;;;;5072865;28;20037;-64
2021/09/29 02:10:08;;;;;;;35.08;28.13;;;18.40;97.20;;;;;;5073314;28;20047;-65
2021/09/29 02:12:35;;;;;;;35.72;28.35;;;18.40;97.30;;;;;;5073325;28;20032;-65
2021/09/29 02:15:03;;;;;;;36.30;30.00;;;18.40;97.40;;;;;;5072029;28;20056;-65
2021/09/29 02:17:29;;;;;;;38.28;29.13;;;18.30;97.60;;;;;;5073193;28;20038;-65
2021/09/29 02:19:56;;;;;;;37.53;29.33;;;18.30;97.70;;;;;;5072387;28;20039;-65
2021/09/29 02:22:22;;;;;;;36.97;28.55;;;18.30;97.70;;;;;;5054963;28;20033;-65
2021/09/29 02:24:49;;;;;;;34.85;27.95;;;18.30;97.70;;;;;;5073008;28;20032;-65
2021/09/29 02:27:15;;;;;;;37.85;28.27;;;18.30;97.80;;;;;;5055272;28;20037;-65
2021/09/29 02:29:42;;;;;;;38.33;27.75;;;18.30;97.90;;;;;;5072088;28;20048;-65
2021/09/29 02:32:08;;;;;;;35.20;28.70;;;18.30;98.00;;;;;;5072945;28;20032;-65
2021/09/29 02:34:35;;;;;;;37.97;27.73;;;18.30;98.00;;;;;;5072441;28;20036;-65
2021/09/29 02:37:01;;;;;;;36.80;28.65;;;18.30;98.00;;;;;;5073098;28;20056;-65
2021/09/29 02:39:28;;;;;;;34.92;28.90;;;18.30;98.00;;;;;;5055267;28;20107;-65
2021/09/29 02:41:54;;;;;;;35.45;28.65;;;18.30;97.70;;;;;;5054873;28;20040;-65
2021/09/29 02:44:20;;;;;;;35.33;28.33;;;18.20;97.90;;;;;;5072924;28;20035;-65
2021/09/29 02:46:47;;;;;;;40.78;30.70;;;18.20;98.00;;;;;;5072567;28;20040;-65
2021/09/29 02:49:13;;;;;;;44.28;30.08;;;18.20;98.10;;;;;;5071222;28;20051;-65
2021/09/29 02:51:40;;;;;;;40.22;30.50;;;18.20;98.30;;;;;;5071589;28;20049;-65
2021/09/29 02:54:06;;;;;;;34.90;28.25;;;18.20;98.00;;;;;;5054966;28;20039;-66
2021/09/29 02:56:33;;;;;;;37.65;29.90;;;18.20;98.20;;;;;;5071564;28;20055;-66
2021/09/29 02:58:59;;;;;;;38.50;30.02;;;18.20;98.30;;;;;;5072748;28;20035;-65
2021/09/29 03:01:26;;;;;;;37.78;29.45;;;18.20;98.40;;;;;;5072399;28;20131;-66
2021/09/29 03:03:52;;;;;;;36.78;29.42;;;18.10;98.30;;;;;;5054513;28;20028;-65
2021/09/29 03:06:19;;;;;;;34.25;28.02;;;18.10;98.10;;;;;;5072070;28;20033;-65
2021/09/29 03:08:46;;;;;;;38.67;29.27;;;18.10;98.00;;;;;;5072799;28;20384;-65
2021/09/29 03:11:12;;;;;;;36.65;29.52;;;18.00;98.00;;;;;;5072746;28;20039;-65
2021/09/29 03:13:39;;;;;;;37.42;30.25;;;18.00;98.30;;;;;;5071867;28;20052;-65
2021/09/29 03:16:05;;;;;;;36.60;28.75;;;18.00;98.50;;;;;;5072571;28;20025;-65
2021/09/29 03:18:32;;;;;;;39.83;30.20;;;18.00;98.60;;;;;;5071864;28;20045;-66
2021/09/29 03:20:58;;;;;;;36.65;28.52;;;18.00;98.60;;;;;;5071230;28;20044;-65
2021/09/29 03:23:24;;;;;;;38.42;29.55;;;18.00;98.30;;;;;;5072398;28;20036;-65
2021/09/29 03:25:51;;;;;;;40.88;29.67;;;18.00;98.30;;;;;;5072385;28;20029;-66
2021/09/29 03:28:17;;;;;;;41.03;30.30;;;17.90;98.30;;;;;;5072107;28;20036;-66
2021/09/29 03:30:44;;;;;;;37.30;29.67;;;17.90;98.40;;;;;;5072500;28;20096;-65
2021/09/29 03:33:10;;;;;;;35.25;28.25;;;17.90;98.60;;;;;;5071801;28;20044;-65
2021/09/29 03:35:37;;;;;;;39.40;30.00;;;17.90;98.60;;;;;;5072582;28;20029;-67
2021/09/29 03:38:04;;;;;;;37.60;28.90;;;17.90;98.60;;;;;;5072136;28;20041;-65
2021/09/29 03:40:30;;;;;;;37.67;30.00;;;17.90;98.70;;;;;;5071908;28;20029;-66
2021/09/29 03:42:57;;;;;;;38.65;29.75;;;17.90;98.80;;;;;;5054670;28;20357;-65
2021/09/29 03:45:23;;;;;;;40.45;30.90;;;17.90;98.90;;;;;;5071915;28;20372;-65
2021/09/29 03:47:50;;;;;;;41.70;30.55;;;17.80;98.80;;;;;;5072020;28;20488;-66
2021/09/29 03:50:16;;;;;;;37.67;29.77;;;17.80;98.60;;;;;;5071465;28;20024;-65
2021/09/29 03:52:43;;;;;;;48.08;32.65;;;17.70;98.70;;;;;;5071893;28;20032;-65
2021/09/29 03:55:09;;;;;;;42.47;30.42;;;17.70;98.80;;;;;;5070520;28;20048;-65
2021/09/29 03:57:38;;;;;;;38.25;28.95;;;17.70;98.80;;;;;;5072010;28;20040;-65
2021/09/29 04:00:08;;;;;;;39.30;30.92;;;17.70;98.70;;;;;;5054923;28;20051;-65
2021/09/29 04:02:35;;;;;;;39.80;31.60;;;17.60;98.80;;;;;;5041093;28;20041;-66
2021/09/29 04:05:03;;;;;;;43.25;31.15;;;17.60;99.00;;;;;;5075458;28;20464;-66
2021/09/29 04:07:29;;;;;;;39.83;31.38;;;17.60;99.20;;;;;;5057509;28;20041;-66
2021/09/29 04:09:56;;;;;;;38.83;29.73;;;17.60;99.30;;;;;;5076044;28;20033;-66
2021/09/29 04:12:22;;;;;;;41.97;30.77;;;17.60;99.30;;;;;;5074787;28;20053;-66
2021/09/29 04:14:49;;;;;;;38.22;30.63;;;17.60;99.10;;;;;;5075565;28;20055;-66
2021/09/29 04:17:16;;;;;;;36.42;28.48;;;17.50;99.10;;;;;;5075302;28;20029;-66
2021/09/29 04:19:42;;;;;;;39.92;30.13;;;17.50;99.00;;;;;;5075234;28;20036;-66
2021/09/29 04:22:10;;;;;;;39.13;29.88;;;17.50;99.00;;;;;;5057212;28;20463;-66
2021/09/29 04:24:38;;;;;;;38.28;31.25;;;17.50;99.00;;;;;;5075345;28;20492;-66
2021/09/29 04:27:06;;;;;;;40.47;31.65;;;17.40;99.30;;;;;;5075274;28;20032;-65
2021/09/29 04:29:33;;;;;;;39.85;31.33;;;17.40;99.50;;;;;;5075170;28;20031;-65
2021/09/29 04:31:59;;;;;;;46.35;32.30;;;17.40;99.60;;;;;;5056896;28;20510;-64
2021/09/29 04:34:26;;;;;;;39.47;32.28;;;17.40;99.50;;;;;;5075212;28;20029;-65
2021/09/29 04:36:52;;;;;;;42.25;31.27;;;17.40;99.60;;;;;;5073992;28;20055;-65
2021/09/29 04:39:19;;;;;;;40.05;31.23;;;17.50;99.60;;;;;;5075209;28;20029;-65
2021/09/29 04:41:45;;;;;;;40.75;32.28;;;17.40;99.60;;;;;;5074891;28;20037;-65
2021/09/29 04:44:11;;;;;;;42.72;31.83;;;17.40;99.60;;;;;;5075027;28;20032;-65
2021/09/29 04:46:38;;;;;;;37.95;28.88;;;17.40;99.80;;;;;;5075094;28;20383;-65
2021/09/29 04:49:04;;;;;;;35.80;28.00;;;17.40;99.90;;;;;;5074700;28;20033;-65
2021/09/29 04:51:31;;;;;;;41.15;30.55;;;17.50;99.50;;;;;;5074966;28;20500;-65
2021/09/29 04:53:57;;;;;;;36.55;27.90;;;17.50;99.10;;;;;;5074501;28;20612;-65
2021/09/29 04:56:23;;;;;;;37.42;28.42;;;17.50;98.70;;;;;;5074662;28;20041;-66
2021/09/29 04:58:50;;;;;;;31.05;24.25;;;17.50;98.90;;;;;;5074433;28;20392;-65
2021/09/29 05:01:20;;;;;;;33.25;24.73;;;17.50;98.30;;;;;;5074780;28;20127;-65
2021/09/29 05:03:47;;;;;;;28.15;23.42;;;17.50;97.70;;;;;;5074517;28;20020;-65
2021/09/29 05:06:13;;;;;;;29.60;24.25;;;17.50;97.50;;;;;;5055941;28;20487;-65
2021/09/29 05:08:42;;;;;;;31.65;25.73;;;17.50;97.60;;;;;;5074344;28;20048;-66
2021/09/29 05:11:09;;;;;;;31.65;26.48;;;17.50;98.00;;;;;;5073943;28;20055;-65
2021/09/29 05:13:36;;;;;;;30.30;24.75;;;17.50;98.00;;;;;;5074601;28;20037;-65
2021/09/29 05:16:03;;;;;;;33.05;26.42;;;17.50;98.10;;;;;;5056702;28;20523;-65
2021/09/29 05:18:29;;;;;;;35.65;27.17;;;17.50;98.30;;;;;;5056259;28;20037;-65
2021/09/29 05:20:56;;;;;;;35.00;27.52;;;17.50;98.50;;;;;;5073756;28;20039;-65
2021/09/29 05:23:22;;;;;;;34.65;29.13;;;17.50;98.70;;;;;;5074271;28;20032;-65
2021/09/29 05:25:49;;;;;;;36.42;27.15;;;17.50;98.90;;;;;;5073613;28;20040;-65
2021/09/29 05:28:20;;;;;;;35.40;28.15;;;17.50;98.90;;;;;;5073987;28;20024;-65
2021/09/29 05:30:47;;;;;;;35.97;28.60;;;17.50;99.20;;;;;;5073692;28;20028;-66
2021/09/29 05:33:13;;;;;;;40.67;30.88;;;17.50;99.30;;;;;;5073945;28;20383;-66
2021/09/29 05:35:40;;;;;;;39.25;30.73;;;17.50;99.20;;;;;;5073624;28;20471;-66
2021/09/29 05:38:06;;;;;;;36.35;28.83;;;17.60;99.30;;;;;;5073512;28;20037;-66
2021/09/29 05:40:33;;;;;;;35.40;29.80;;;17.60;99.10;;;;;;5074359;28;20032;-66
2021/09/29 05:42:59;;;;;;;36.75;28.08;;;17.60;99.00;;;;;;5055612;28;20033;-66
2021/09/29 05:45:26;;;;;;;32.65;27.80;;;17.60;98.60;;;;;;5073587;28;20040;-66
2021/09/29 05:47:53;;;;;;;31.63;26.05;;;17.60;98.30;;;;;;5055515;28;20029;-67
2021/09/29 05:50:19;;;;;;;32.20;27.85;;;17.60;98.10;;;;;;5073458;28;20033;-65
2021/09/29 05:52:45;;;;;;;32.83;27.50;;;17.60;98.10;;;;;;5054871;28;20048;-66
2021/09/29 05:55:13;;;;;;;37.47;27.90;;;17.60;98.10;;;;;;5055995;28;20037;-66
2021/09/29 05:57:40;;;;;;;34.60;27.38;;;17.60;98.00;;;;;;5073319;28;20036;-66
2021/09/29 06:00:08;;;;;;;35.00;28.15;;;17.60;98.10;;;;;;5073741;28;20033;-65
2021/09/29 06:02:38;;;;;;;33.05;27.77;;;17.60;98.20;;;;;;5073453;28;20495;-66
2021/09/29 06:05:05;;;;;;;35.13;30.15;;;17.60;98.00;;;;;;5072342;28;20044;-65
2021/09/29 06:07:32;;;;;;;37.15;31.33;;;17.60;97.70;;;;;;5054801;28;20051;-66
2021/09/29 06:09:58;;;;;;;28.95;24.95;;;17.60;97.30;;;;;;5072808;28;20288;-68
2021/09/29 06:12:25;;;;;;;28.27;25.02;;;17.60;96.80;;;;;;5072025;28;20041;-68
2021/09/29 06:14:54;;;;;;;27.42;23.85;;;17.60;96.80;;;;;;5072510;28;20048;-66
2021/09/29 06:17:26;;;;;;;24.80;21.08;;;17.60;96.50;;;;;;5072122;28;20047;-67
2021/09/29 06:19:54;;;;;;;30.02;23.92;;;17.70;96.40;;;;;;5071647;28;20056;-67
2021/09/29 06:22:22;;;;;;;26.40;22.15;;;17.70;96.20;;;;;;5068119;28;20376;-65
2021/09/29 06:24:49;;;;;;;24.92;21.42;;;17.70;95.90;;;;;;5064452;28;20406;-66
2021/09/29 06:27:15;;;;;;;27.83;22.80;;;17.70;95.60;;;;;;5064427;28;20044;-65
2021/09/29 06:29:43;;;;;;;25.00;20.15;;;17.70;95.80;;;;;;5055212;28;20040;-65
2021/09/29 06:32:10;;;;;;;24.98;21.92;;;17.80;95.60;;;;;;5062996;28;20048;-68
2021/09/29 06:34:36;;;;;;;32.00;23.98;;;17.80;95.50;;;;;;5062126;28;20040;-69
2021/09/29 06:37:03;;;;;;;29.70;22.63;;;17.90;95.50;;;;;;5065472;28;20040;-67
2021/09/29 06:39:30;;;;;;;28.98;23.38;;;17.90;95.70;;;;;;5063513;28;20037;-64
2021/09/29 06:41:57;;;;;;;31.08;22.95;;;18.00;95.90;;;;;;5071630;28;20037;-63
2021/09/29 06:44:25;;;;;;;30.23;23.05;;;18.00;95.70;;;;;;5065971;28;20052;-67
2021/09/29 06:46:51;;;;;;;31.17;22.83;;;18.10;95.70;;;;;;5063552;28;20480;-61
2021/09/29 06:49:17;;;;;;;30.85;23.75;;;18.10;95.60;;;;;;5064257;28;20052;-63
2021/09/29 06:51:44;;;;;;;36.85;25.50;;;18.20;95.40;;;;;;5059021;28;20044;-63
2021/09/29 06:54:10;;;;;;;34.45;30.67;;;18.20;95.40;;;;;;5051923;28;20048;-63
2021/09/29 06:56:37;;;;;;;46.08;38.47;;;18.20;95.40;;;;;;5054535;28;20051;-64
2021/09/29 06:59:03;;;;;;;49.70;40.42;;;18.20;95.40;;;;;;5070557;28;20047;-65
2021/09/29 07:01:30;;;;;;;49.60;42.45;;;18.30;95.30;;;;;;5058373;28;20060;-64
2021/09/29 07:03:56;;;;;;;54.85;44.20;;;18.40;95.30;;;;;;5052344;28;20460;-65
2021/09/29 07:06:23;;;;;;;45.08;38.20;;;18.40;95.10;;;;;;5051783;28;20376;-64
2021/09/29 07:08:49;;;;;;;52.78;41.80;;;18.50;95.10;;;;;;5051493;28;20059;-64
2021/09/29 07:11:17;;;;;;;53.92;46.20;;;18.50;94.90;;;;;;5051306;28;20056;-64
2021/09/29 07:13:45;;;;;;;41.53;32.58;;;18.50;94.80;;;;;;5057848;28;20055;-64
2021/09/29 07:16:13;;;;;;;34.55;27.95;;;18.50;94.70;;;;;;5071658;28;20471;-64
2021/09/29 07:18:40;;;;;;;26.00;22.08;;;18.60;94.80;;;;;;5071361;28;20051;-63
2021/09/29 07:21:06;;;;;;;33.33;24.65;;;18.50;94.80;;;;;;5071787;28;20056;-61
2021/09/29 07:23:33;;;;;;;28.85;21.95;;;18.50;94.80;;;;;;5071603;28;20349;-62
2021/09/29 07:25:59;;;;;;;25.02;20.85;;;18.50;94.80;;;;;;5072760;28;20032;-62
2021/09/29 07:28:26;;;;;;;27.63;24.42;;;18.50;94.90;;;;;;5071085;28;20049;-62
2021/09/29 07:30:52;;;;;;;32.55;25.05;;;18.60;95.70;;;;;;5053574;28;20380;-62
2021/09/29 07:33:19;;;;;;;32.67;27.05;;;18.60;96.00;;;;;;5071335;28;20523;-62
2021/09/29 07:35:45;;;;;;;27.38;24.27;;;18.60;95.70;;;;;;5075408;28;20036;-63
2021/09/29 07:38:12;;;;;;;29.48;23.30;;;18.70;95.80;;;;;;5075430;28;20062;-62
2021/09/29 07:40:39;;;;;;;29.42;23.90;;;18.70;95.80;;;;;;5075813;28;20052;-62
2021/09/29 07:43:06;;;;;;;28.88;25.77;;;18.70;95.80;;;;;;5075255;28;20036;-63
2021/09/29 07:45:32;;;;;;;34.17;27.95;;;18.70;95.80;;;;;;5075049;28;20048;-62
2021/09/29 07:47:59;;;;;;;28.95;25.85;;;18.70;95.80;;;;;;5070616;28;20040;-62
2021/09/29 07:50:26;;;;;;;30.08;25.65;;;18.70;95.80;;;;;;5062624;28;20489;-63
2021/09/29 07:52:53;;;;;;;28.55;23.83;;;18.70;95.70;;;;;;5060146;28;20037;-63
2021/09/29 07:55:21;;;;;;;28.25;22.65;;;18.80;95.70;;;;;;5061746;28;20045;-63
2021/09/29 07:57:47;;;;;;;27.83;24.45;;;18.80;95.80;;;;;;5072094;28;20044;-62
2021/09/29 08:00:16;;;;;;;32.45;26.35;;;18.80;95.80;;;;;;5074725;28;20044;-63
2021/09/29 08:02:43;;;;;;;26.27;23.25;;;18.80;95.80;;;;;;5075032;28;20391;-63
2021/09/29 08:05:10;;;;;;;27.15;24.23;;;18.80;95.50;;;;;;5074581;28;20044;-63
2021/09/29 08:07:38;;;;;;;31.58;25.25;;;18.80;95.50;;;;;;5075351;28;20047;-63
2021/09/29 08:10:06;;;;;;;26.85;23.35;;;18.90;95.60;;;;;;5074823;28;20404;-63
2021/09/29 08:12:32;;;;;;;31.30;26.08;;;18.90;95.80;;;;;;5074804;28;20388;-63
2021/09/29 08:14:59;;;;;;;35.30;26.40;;;18.90;95.70;;;;;;5074839;28;20048;-64
2021/09/29 08:17:25;;;;;;;32.17;26.63;;;19.00;95.60;;;;;;5074468;28;20064;-62
2021/09/29 08:19:52;;;;;;;32.55;26.73;;;19.00;95.60;;;;;;5074363;28;20111;-62
2021/09/29 08:22:20;;;;;;;32.47;25.00;;;19.10;95.70;;;;;;5075294;28;20464;-63
2021/09/29 08:38:50;;;;;;;33.00;28.42;;;19.50;95.40;;;;;;5058938;28;20388;-63
2021/09/29 08:41:45;;;;;;;34.78;29.80;;;19.60;95.20;;;;;;5074278;28;20506;-63
2021/09/29 08:44:10;;;;;;;33.33;26.52;;;19.50;95.10;;;;;;5073262;28;20044;-63
2021/09/29 08:46:58;;;;;;;32.70;27.85;;;19.60;95.10;;;;;;5073391;28;20055;-62
2021/09/29 08:49:43;;;;;;;30.50;27.23;;;19.70;94.90;;;;;;5074031;28;20044;-63
2021/09/29 08:57:37;;;;;;;28.73;25.50;;;19.90;94.60;;;;;;5074377;28;20040;-63
2021/09/29 09:16:45;;;;;;;31.77;27.88;;;20.10;94.00;;;;;;5063061;28;20065;-63
2021/09/29 09:19:13;;;;;;;29.65;26.20;;;20.20;94.10;;;;;;5039315;28;20144;-63
2021/09/29 09:22:02;;;;;;;34.53;29.75;;;20.30;93.80;;;;;;5061478;28;20037;-62
2021/09/29 09:24:36;;;;;;;31.35;27.95;;;20.40;93.60;;;;;;5058002;28;20029;-63
2021/09/29 09:27:06;;;;;;;33.20;29.60;;;20.40;93.40;;;;;;5061053;28;20491;-62
2021/09/29 09:29:50;;;;;;;32.20;28.50;;;20.50;93.20;;;;;;5056736;28;20041;-63
2021/09/29 09:32:24;;;;;;;34.83;30.55;;;20.50;92.60;;;;;;5068894;28;20047;-63
2021/09/29 09:35:04;;;;;;;33.20;29.65;;;20.50;92.40;;;;;;5063608;28;20044;-63
2021/09/29 09:37:32;;;;;;;34.10;30.50;;;20.60;91.80;;;;;;5065044;28;20059;-63
2021/09/29 09:40:31;;;;;;;35.45;31.40;;;20.60;91.70;;;;;;5062103;28;20290;-63
2021/09/29 09:42:58;;;;;;;37.50;30.77;;;20.60;91.60;;;;;;5065965;28;20056;-63
2021/09/29 09:45:34;;;;;;;36.30;30.50;;;20.60;91.90;;;;;;5064854;28;20021;-64
2021/09/29 09:48:00;;;;;;;33.53;29.42;;;20.70;91.70;;;;;;5059556;28;20396;-63
2021/09/29 09:50:29;;;;;;;33.47;29.88;;;20.70;91.70;;;;;;5062073;28;20021;-63
2021/09/29 09:52:55;;;;;;;36.13;29.67;;;20.70;91.50;;;;;;5064595;28;20056;-63
2021/09/29 09:55:23;;;;;;;46.25;32.72;;;20.80;91.40;;;;;;5064733;28;20045;-64
2021/09/29 09:57:55;;;;;;;39.58;32.35;;;20.80;91.20;;;;;;5052964;28;20032;-63
2021/09/29 10:00:27;;;;;;;37.25;31.35;;;20.90;90.80;;;;;;5062510;28;20052;-64
2021/09/29 10:02:56;;;;;;;34.55;30.83;;;20.90;90.60;;;;;;5057123;28;20043;-64
2021/09/29 10:05:26;;;;;;;39.03;31.15;;;20.90;90.80;;;;;;5062683;28;20029;-64
2021/09/29 10:07:53;;;;;;;37.65;32.50;;;21.00;90.80;;;;;;5056783;28;20052;-63
2021/09/29 10:26:30;;;;;;;42.40;34.65;;;21.40;90.20;;;;;;5062407;28;20055;-63
2021/09/29 10:29:08;;;;;;;40.78;33.97;;;21.40;90.00;;;;;;5055652;28;20048;-63
2021/09/29 10:34:13;;;;;;;40.03;35.03;;;21.50;89.00;;;;;;5063941;28;20035;-63
2021/09/29 11:29:52;;;;;;;40.10;34.00;;;22.40;79.90;;;;;;5023144;28;20051;-62
2021/09/29 11:34:50;;;;;;;121.93;109.03;;;22.50;78.80;;;;;;5035627;28;20025;-65
2021/09/29 12:10:29;;;;;;;36.55;32.38;;;22.90;76.70;;;;;;5044618;28;20498;-64
2021/09/29 12:12:56;;;;;;;33.97;30.20;;;23.00;75.30;;;;;;5041756;28;20037;-64
2021/09/29 12:15:23;;;;;;;35.00;30.92;;;23.00;74.70;;;;;;5064967;28;20045;-64
2021/09/29 12:17:50;;;;;;;36.08;30.45;;;23.00;74.70;;;;;;5065504;28;20522;-65
2021/09/29 12:20:21;;;;;;;36.35;32.40;;;23.00;75.20;;;;;;5061693;28;20036;-65
2021/09/29 12:22:53;;;;;;;36.10;30.70;;;23.00;75.00;;;;;;5071546;28;20045;-64
2021/09/29 12:25:31;;;;;;;38.30;32.05;;;23.10;75.10;;;;;;5066547;28;20040;-64
2021/09/29 12:31:06;;;;;;;32.25;28.77;;;23.00;75.00;;;;;;5069902;28;20037;-64
2021/09/29 12:33:47;;;;;;;35.35;30.95;;;23.10;74.60;;;;;;5066695;28;20029;-65
2021/09/29 12:36:25;;;;;;;37.50;31.75;;;23.10;74.30;;;;;;5061614;28;20049;-65
2021/09/29 12:38:51;;;;;;;30.88;27.58;;;23.20;73.60;;;;;;5072819;28;20048;-64
2021/09/29 12:41:18;;;;;;;33.95;30.10;;;23.20;73.50;;;;;;5064167;28;20071;-64
2021/09/29 12:43:44;;;;;;;35.60;30.50;;;23.20;72.90;;;;;;5061436;28;20032;-65
2021/09/29 12:46:17;;;;;;;37.90;33.10;;;23.20;73.00;;;;;;5064959;28;20040;-65
2021/09/29 12:48:45;;;;;;;37.90;33.92;;;23.20;72.10;;;;;;5060671;28;20045;-64
2021/09/29 12:51:14;;;;;;;39.83;31.83;;;23.20;72.10;;;;;;5070190;28;20045;-65
2021/09/29 12:56:16;;;;;;;37.67;33.58;;;23.20;71.60;;;;;;5069740;28;20464;-64
2021/09/29 12:58:43;;;;;;;37.70;32.10;;;23.20;71.30;;;;;;5066762;28;20049;-65
2021/09/29 13:01:09;;;;;;;34.72;30.48;;;23.20;71.00;;;;;;5069444;28;20044;-64
2021/09/29 13:03:36;;;;;;;39.88;31.05;;;23.10;71.20;;;;;;5066578;28;20040;-65
2021/09/29 13:06:03;;;;;;;35.00;30.00;;;23.10;71.70;;;;;;5069049;28;20495;-64
2021/09/29 13:08:29;;;;;;;37.40;31.13;;;23.10;71.90;;;;;;5068297;28;20037;-64
2021/09/29 13:10:58;;;;;;;32.95;29.27;;;23.10;71.40;;;;;;5066223;28;20036;-63
2021/09/29 13:13:30;;;;;;;31.63;28.23;;;23.10;71.60;;;;;;5066069;28;20041;-64
2021/09/29 13:16:00;;;;;;;30.95;27.55;;;23.10;71.20;;;;;;5046324;28;20040;-64
2021/09/29 13:21:00;;;;;;;29.88;26.65;;;23.20;70.20;;;;;;5068772;28;20043;-65
2021/09/29 13:23:33;;;;;;;31.73;27.25;;;23.20;70.20;;;;;;5066700;28;20045;-65
2021/09/29 13:36:43;;;;;;;31.25;27.42;;;23.30;69.30;;;;;;5063588;28;20389;-64
2021/09/29 13:39:18;;;;;;;32.10;26.77;;;23.30;69.50;;;;;;5071682;28;20044;-64
2021/09/29 13:41:47;;;;;;;31.10;27.50;;;23.30;69.80;;;;;;5068722;28;20045;-64
2021/09/29 13:44:14;;;;;;;28.73;25.58;;;23.30;70.20;;;;;;5067125;28;20049;-64
2021/09/29 13:46:41;;;;;;;28.85;25.10;;;23.20;69.50;;;;;;5070943;28;20051;-65
2021/09/29 13:49:09;;;;;;;31.00;27.85;;;23.20;69.40;;;;;;5049998;28;20037;-64
2021/09/29 13:51:37;;;;;;;30.17;26.98;;;23.20;69.20;;;;;;5072696;28;20032;-64
2021/09/29 13:54:10;;;;;;;28.48;24.90;;;23.20;69.30;;;;;;5068848;28;20051;-64
2021/09/29 13:56:51;;;;;;;29.58;25.40;;;23.20;69.80;;;;;;5064229;28;20045;-64
2021/09/29 14:32:16;;;;;;;24.83;20.38;;;23.40;66.10;;;;;;5061863;28;20049;-65
2021/09/29 14:34:09;;;;;;;24.30;21.15;;;23.40;65.90;;;;;;5058098;28;20041;-64
2021/09/29 14:36:35;;;;;;;23.25;20.85;;;23.40;65.90;;;;;;5057502;28;20029;-65
2021/09/29 14:39:02;;;;;;;24.40;21.45;;;23.40;66.20;;;;;;5063533;28;20037;-65
2021/09/29 14:41:29;;;;;;;25.35;22.75;;;23.40;66.50;;;;;;5060732;28;20515;-64
2021/09/29 14:43:55;;;;;;;29.30;26.15;;;23.40;66.80;;;;;;5060537;28;20051;-65
2021/09/29 14:46:22;;;;;;;30.35;25.52;;;23.40;67.10;;;;;;5061417;28;20041;-65
2021/09/29 14:48:48;;;;;;;31.55;26.45;;;23.40;66.90;;;;;;5041673;28;20048;-65
2021/09/29 14:51:15;;;;;;;32.40;25.98;;;23.40;67.20;;;;;;5064405;28;20063;-65
2021/09/29 14:53:41;;;;;;;31.90;26.92;;;23.40;67.10;;;;;;5063242;28;20045;-64
2021/09/29 14:56:09;;;;;;;29.55;25.65;;;23.30;67.00;;;;;;5056455;28;20041;-64
2021/09/29 14:58:37;;;;;;;29.67;24.92;;;23.40;67.10;;;;;;5061908;28;20033;-65
2021/09/29 15:01:06;;;;;;;25.85;23.10;;;23.40;67.40;;;;;;5054450;28;20055;-64
2021/09/29 15:03:32;;;;;;;31.45;24.08;;;23.40;67.20;;;;;;5042584;28;20355;-65
2021/09/29 15:05:59;;;;;;;27.83;24.73;;;23.40;67.70;;;;;;5066362;28;20045;-64
2021/09/29 15:08:25;;;;;;;27.85;23.52;;;23.40;67.00;;;;;;5062673;28;20044;-64
2021/09/29 15:10:52;;;;;;;25.02;22.30;;;23.40;67.00;;;;;;5058283;28;20049;-64
2021/09/29 15:13:24;;;;;;;32.88;25.67;;;23.40;67.30;;;;;;5054872;28;20039;-64
2021/09/29 15:15:57;;;;;;;28.65;24.02;;;23.40;67.10;;;;;;5054157;28;20512;-64
2021/09/29 15:18:30;;;;;;;27.85;23.77;;;23.40;66.60;;;;;;5061796;28;20045;-64
2021/09/29 15:26:47;;;;;;;26.95;24.05;;;23.30;67.20;;;;;;5061889;28;20045;-65
2021/09/29 15:48:17;;;;;;;26.67;23.83;;;23.30;67.40;;;;;;5055780;28;20045;-64
2021/09/29 15:56:03;;;;;;;25.02;22.33;;;23.30;65.60;;;;;;5066234;28;20037;-65
2021/09/29 16:01:11;;;;;;;24.58;21.83;;;23.20;65.50;;;;;;5060922;28;20044;-65
2021/09/29 16:31:29;;;;;;;26.88;22.10;;;22.90;71.10;;;;;;5067517;28;20036;-66
2021/09/29 16:36:23;;;;;;;24.70;20.92;;;22.80;72.00;;;;;;5067838;28;20579;-65
2021/09/29 16:38:50;;;;;;;23.58;20.15;;;22.70;73.00;;;;;;5048796;28;20037;-65
2021/09/29 16:41:19;;;;;;;22.48;20.05;;;22.70;73.40;;;;;;5060066;28;20542;-65
2021/09/29 16:43:46;;;;;;;20.58;18.40;;;22.60;73.80;;;;;;5071801;28;20380;-66
2021/09/29 16:46:16;;;;;;;21.80;19.52;;;22.60;74.40;;;;;;5071386;28;20341;-66
2021/09/29 16:48:43;;;;;;;22.00;19.60;;;22.50;74.50;;;;;;5065016;28;20045;-65